Time;durP1;ratioP1;P1;durP2;ratioP2;P2;SDS_P1;SDS_P2;PMS_P1;PMS_P2;Temp;Humidity;BMP_temperature;BMP_pressure;BME280_temperature;BME280_humidity;BME280_pressure;Samples;Min_cycle;Max_cycle;Signal;HPM_P1;HPM_P2
2021/01/14 00:00:17;;;;;;;6.30;3.67;;;2.00;98.00;;;;;;5095319;28;20023;-75
2021/01/14 00:02:43;;;;;;;7.38;3.65;;;2.00;98.00;;;;;;5081879;28;20039;-75
2021/01/14 00:05:10;;;;;;;7.90;4.15;;;2.00;98.00;;;;;;5083488;28;20027;-75
2021/01/14 00:07:36;;;;;;;10.57;4.32;;;2.00;98.00;;;;;;5089857;28;20020;-75
2021/01/14 00:10:04;;;;;;;5.45;3.80;;;2.00;98.00;;;;;;5092778;28;20033;-76
2021/01/14 00:12:29;;;;;;;11.45;6.60;;;2.00;98.00;;;;;;5081356;28;20032;-76
2021/01/14 00:14:55;;;;;;;5.03;2.70;;;2.00;98.00;;;;;;5084377;28;20321;-76
2021/01/14 00:17:21;;;;;;;5.05;3.15;;;2.00;98.00;;;;;;5086132;28;20040;-77
2021/01/14 00:19:46;;;;;;;5.43;3.50;;;1.90;98.00;;;;;;5082358;28;20073;-77
2021/01/14 00:22:12;;;;;;;4.57;2.85;;;2.00;98.00;;;;;;5081413;28;20364;-75
2021/01/14 00:24:38;;;;;;;3.25;2.03;;;1.90;98.00;;;;;;5080947;28;20051;-75
2021/01/14 00:27:04;;;;;;;5.93;3.10;;;1.90;98.00;;;;;;5094612;28;20032;-77
2021/01/14 00:29:30;;;;;;;59.78;6.03;;;1.90;98.00;;;;;;5081387;28;20108;-75
2021/01/14 00:31:57;;;;;;;60.75;6.90;;;1.90;98.00;;;;;;5082305;28;20094;-76
2021/01/14 00:34:27;;;;;;;40.90;5.07;;;1.70;98.00;;;;;;5084908;28;20467;-75
2021/01/14 00:39:40;;;;;;;4.78;3.15;;;1.30;98.00;;;;;;5084193;28;20042;-76
2021/01/14 00:42:05;;;;;;;4.47;2.97;;;1.10;98.00;;;;;;5079981;28;20055;-78
2021/01/14 00:44:31;;;;;;;5.45;3.60;;;0.90;98.00;;;;;;5084031;28;20020;-76
2021/01/14 00:46:58;;;;;;;4.78;3.00;;;0.80;98.00;;;;;;5086578;28;20715;-77
2021/01/14 00:49:25;;;;;;;5.72;2.40;;;0.70;98.00;;;;;;5075416;28;20024;-75
2021/01/14 00:51:51;;;;;;;2.83;2.10;;;0.60;98.00;;;;;;5075639;28;20037;-76
2021/01/14 00:54:17;;;;;;;4.40;2.67;;;0.60;98.00;;;;;;5095540;28;20106;-74
2021/01/14 00:56:44;;;;;;;2.63;1.70;;;0.60;98.00;;;;;;5088370;28;20012;-74
2021/01/14 00:59:10;;;;;;;2.63;1.77;;;0.50;98.00;;;;;;5077394;28;20025;-74
2021/01/14 01:01:40;;;;;;;2.67;1.90;;;0.40;98.00;;;;;;5088913;28;20028;-75
2021/01/14 01:04:06;;;;;;;3.22;2.20;;;0.30;98.00;;;;;;5093405;28;20050;-73
2021/01/14 01:06:34;;;;;;;2.63;1.67;;;0.20;98.00;;;;;;5086609;28;20325;-74
2021/01/14 01:09:03;;;;;;;3.15;1.70;;;0.20;98.00;;;;;;5092399;28;20028;-74
2021/01/14 01:11:29;;;;;;;3.40;1.88;;;0.20;98.00;;;;;;5075262;28;20024;-72
2021/01/14 01:13:54;;;;;;;3.40;2.05;;;0.20;98.00;;;;;;5083058;28;20036;-75
2021/01/14 01:16:20;;;;;;;2.35;1.60;;;0.10;98.00;;;;;;5086111;28;20024;-75
2021/01/14 01:18:46;;;;;;;3.65;1.75;;;0.10;98.00;;;;;;5085593;28;20119;-75
2021/01/14 01:21:12;;;;;;;2.80;1.75;;;0.10;98.00;;;;;;5079437;28;20036;-75
2021/01/14 01:23:39;;;;;;;2.90;1.80;;;0.10;98.00;;;;;;5078644;28;20020;-75
2021/01/14 01:26:05;;;;;;;3.45;1.77;;;0.10;98.00;;;;;;5075661;28;20317;-75
2021/01/14 01:28:31;;;;;;;2.72;1.80;;;0.00;98.00;;;;;;5076424;28;20506;-74
2021/01/14 01:30:57;;;;;;;2.50;1.60;;;0.10;98.00;;;;;;5084337;28;20325;-75
2021/01/14 01:33:28;;;;;;;2.63;1.73;;;0.10;98.00;;;;;;5083472;28;20020;-73
2021/01/14 01:35:55;;;;;;;2.58;1.60;;;0.10;98.00;;;;;;5094699;28;20105;-75
2021/01/14 01:38:22;;;;;;;2.97;1.90;;;0.10;98.00;;;;;;5090123;28;20094;-74
2021/01/14 01:40:58;;;;;;;3.58;2.58;;;0.10;98.00;;;;;;5090422;28;20486;-75
2021/01/14 01:43:25;;;;;;;3.42;2.22;;;0.10;98.00;;;;;;5076994;28;20025;-74
2021/01/14 01:45:51;;;;;;;4.82;3.30;;;0.00;98.00;;;;;;5080763;28;20111;-74
2021/01/14 01:48:20;;;;;;;4.55;2.80;;;0.10;98.00;;;;;;5084708;28;20051;-75
2021/01/14 01:50:47;;;;;;;5.43;3.03;;;0.10;98.00;;;;;;5089888;28;20434;-75
2021/01/14 01:53:13;;;;;;;4.50;3.15;;;0.10;98.00;;;;;;5076422;28;20032;-75
2021/01/14 01:55:42;;;;;;;4.57;2.08;;;0.10;98.00;;;;;;5078262;28;20052;-76
2021/01/14 01:58:10;;;;;;;6.15;3.40;;;0.10;98.00;;;;;;5084881;28;20020;-75
2021/01/14 02:00:35;;;;;;;5.75;3.40;;;0.10;98.00;;;;;;5095562;28;20046;-74
2021/01/14 02:03:01;;;;;;;4.82;2.50;;;0.10;98.00;;;;;;5094252;28;20036;-74
2021/01/14 02:05:27;;;;;;;3.63;1.85;;;0.10;98.00;;;;;;5093820;28;20024;-73
2021/01/14 02:08:07;;;;;;;2.63;1.60;;;0.10;98.00;;;;;;5079154;28;20032;-74
2021/01/14 02:10:51;;;;;;;1.90;1.20;;;0.10;98.00;;;;;;5074100;28;20028;-74
2021/01/14 02:13:22;;;;;;;3.10;1.77;;;0.10;98.00;;;;;;5076220;28;20037;-75
2021/01/14 02:15:50;;;;;;;3.85;2.40;;;0.10;98.00;;;;;;5077399;28;20036;-75
2021/01/14 02:18:18;;;;;;;4.57;2.88;;;0.10;98.00;;;;;;5073712;28;20406;-74
2021/01/14 02:20:48;;;;;;;4.45;2.50;;;0.10;98.00;;;;;;5088916;28;20035;-75
2021/01/14 02:23:36;;;;;;;4.45;2.42;;;0.10;98.00;;;;;;5093059;28;20032;-74
2021/01/14 02:26:13;;;;;;;4.75;2.90;;;0.10;98.00;;;;;;5081801;28;20036;-73
2021/01/14 02:28:42;;;;;;;3.50;1.92;;;0.20;98.00;;;;;;5088889;28;20028;-75
2021/01/14 02:31:08;;;;;;;2.65;1.77;;;0.20;98.00;;;;;;5080959;28;20082;-75
2021/01/14 02:33:34;;;;;;;3.67;2.10;;;0.20;98.00;;;;;;5086787;28;20435;-75
2021/01/14 02:36:02;;;;;;;2.58;1.80;;;0.20;98.00;;;;;;5091785;28;20099;-75
2021/01/14 02:38:28;;;;;;;2.80;1.95;;;0.20;98.00;;;;;;5078215;28;20036;-74
2021/01/14 02:40:54;;;;;;;3.80;2.40;;;0.20;98.00;;;;;;5077137;28;20027;-75
2021/01/14 02:43:19;;;;;;;4.00;2.60;;;0.20;98.00;;;;;;5075045;28;20375;-75
2021/01/14 02:45:45;;;;;;;4.68;3.05;;;0.20;98.00;;;;;;5090923;28;20043;-74
2021/01/14 02:48:15;;;;;;;4.65;2.22;;;0.20;98.00;;;;;;5082686;28;20435;-75
2021/01/14 02:50:41;;;;;;;2.78;1.90;;;0.20;98.00;;;;;;5085275;28;20517;-75
2021/01/14 02:53:08;;;;;;;3.38;2.08;;;0.10;98.00;;;;;;5084992;28;20028;-75
2021/01/14 02:55:36;;;;;;;3.83;2.17;;;0.10;98.00;;;;;;5096320;28;20043;-75
2021/01/14 02:58:01;;;;;;;3.50;2.08;;;0.10;98.00;;;;;;5091620;28;20092;-74
2021/01/14 03:00:27;;;;;;;4.18;2.63;;;0.10;98.00;;;;;;5080152;28;20112;-74
2021/01/14 03:02:53;;;;;;;5.00;3.30;;;0.10;98.00;;;;;;5096267;28;20034;-74
2021/01/14 03:05:18;;;;;;;5.63;3.50;;;0.10;98.00;;;;;;5088485;28;20025;-73
2021/01/14 03:07:44;;;;;;;5.88;4.03;;;0.10;98.00;;;;;;5092958;28;20024;-74
2021/01/14 03:10:10;;;;;;;5.82;3.13;;;0.10;98.00;;;;;;5079019;28;20401;-74
2021/01/14 03:12:36;;;;;;;9.85;3.17;;;0.10;98.00;;;;;;5093690;28;20384;-73
2021/01/14 03:15:03;;;;;;;8.63;3.08;;;0.10;98.00;;;;;;5098436;28;20020;-73
2021/01/14 03:17:29;;;;;;;9.55;3.03;;;0.10;98.00;;;;;;5083931;28;20066;-73
2021/01/14 03:19:56;;;;;;;4.28;2.85;;;0.10;98.00;;;;;;5092605;28;20028;-74
2021/01/14 03:22:24;;;;;;;3.75;2.10;;;0.10;98.00;;;;;;5081931;28;20482;-73
2021/01/14 03:24:50;;;;;;;8.65;2.70;;;0.10;98.00;;;;;;5077942;28;20099;-75
2021/01/14 03:27:15;;;;;;;3.53;2.35;;;0.10;98.00;;;;;;5081772;28;20112;-74
2021/01/14 03:29:41;;;;;;;4.40;2.47;;;0.10;98.00;;;;;;5095608;28;20409;-74
2021/01/14 03:32:07;;;;;;;3.20;2.20;;;0.10;98.00;;;;;;5084012;28;20028;-75
2021/01/14 03:34:33;;;;;;;3.20;2.05;;;0.10;98.00;;;;;;5091841;28;20032;-73
2021/01/14 03:37:00;;;;;;;4.03;2.28;;;0.10;98.00;;;;;;5082878;28;20025;-74
2021/01/14 03:39:27;;;;;;;3.35;2.03;;;0.10;98.00;;;;;;5095487;28;20321;-74
2021/01/14 03:41:56;;;;;;;3.60;2.10;;;0.10;98.00;;;;;;5088161;28;20363;-73
2021/01/14 03:44:23;;;;;;;3.22;1.85;;;0.10;98.00;;;;;;5096238;28;20085;-74
2021/01/14 03:46:49;;;;;;;2.83;1.80;;;0.10;98.00;;;;;;5084626;28;20383;-73
2021/01/14 03:49:15;;;;;;;4.28;2.40;;;0.10;98.00;;;;;;5083412;28;20620;-74
2021/01/14 03:51:44;;;;;;;3.63;2.10;;;0.10;98.00;;;;;;5090801;28;20028;-73
2021/01/14 03:54:13;;;;;;;3.10;1.67;;;0.10;98.00;;;;;;5097726;28;20027;-74
2021/01/14 03:56:40;;;;;;;6.75;2.53;;;0.10;98.00;;;;;;5088091;28;20028;-73
2021/01/14 03:59:06;;;;;;;3.47;1.92;;;0.10;98.00;;;;;;5077425;28;20032;-73
2021/01/14 04:01:33;;;;;;;4.80;2.10;;;0.10;98.00;;;;;;5078289;28;20082;-73
2021/01/14 04:03:59;;;;;;;2.78;1.73;;;0.10;98.00;;;;;;5089805;28;20032;-73
2021/01/14 04:06:44;;;;;;;2.55;1.65;;;0.10;98.00;;;;;;5087751;28;20036;-74
2021/01/14 04:09:10;;;;;;;3.83;2.00;;;0.10;98.00;;;;;;5083595;28;20041;-74
2021/01/14 04:11:37;;;;;;;3.47;2.20;;;0.10;98.00;;;;;;5096802;28;20028;-74
2021/01/14 04:14:03;;;;;;;5.47;3.03;;;0.10;98.00;;;;;;5090849;28;20367;-74
2021/01/14 04:16:28;;;;;;;4.15;2.40;;;0.10;98.00;;;;;;5083553;28;20024;-75
2021/01/14 04:18:54;;;;;;;3.08;2.00;;;0.10;98.00;;;;;;5092844;28;20075;-73
2021/01/14 04:21:20;;;;;;;5.18;2.38;;;0.10;98.00;;;;;;5084892;28;20032;-73
2021/01/14 04:23:46;;;;;;;3.20;1.92;;;0.10;98.00;;;;;;5079351;28;20032;-74
2021/01/14 04:26:12;;;;;;;5.25;3.15;;;0.10;98.00;;;;;;5087450;28;20028;-74
2021/01/14 04:28:38;;;;;;;5.70;3.40;;;0.10;98.00;;;;;;5095350;28;20039;-73
2021/01/14 04:31:04;;;;;;;4.28;2.88;;;0.10;98.00;;;;;;5090166;28;20078;-74
2021/01/14 04:33:30;;;;;;;7.45;4.63;;;0.10;98.00;;;;;;5078289;28;20422;-74
2021/01/14 04:35:58;;;;;;;5.28;3.50;;;0.10;98.00;;;;;;5077140;28;20036;-74
2021/01/14 04:38:26;;;;;;;5.70;4.10;;;0.10;98.00;;;;;;5082949;28;20063;-73
2021/01/14 04:41:03;;;;;;;5.88;3.40;;;0.10;98.00;;;;;;5083605;28;20105;-73
2021/01/14 04:43:31;;;;;;;6.38;4.20;;;0.20;98.00;;;;;;5077463;28;20024;-73
2021/01/14 04:46:09;;;;;;;5.82;4.03;;;0.10;98.00;;;;;;5077494;28;20028;-74
2021/01/14 04:48:35;;;;;;;6.43;4.68;;;0.10;98.00;;;;;;5076332;28;20405;-75
2021/01/14 04:51:14;;;;;;;5.50;3.10;;;0.10;98.00;;;;;;5076370;28;20117;-73
2021/01/14 04:53:41;;;;;;;6.28;4.43;;;0.20;98.00;;;;;;5078920;28;20024;-74
2021/01/14 04:56:09;;;;;;;17.33;8.35;;;0.20;98.00;;;;;;5092922;28;20036;-73
2021/01/14 04:58:36;;;;;;;15.32;7.53;;;0.10;98.00;;;;;;5081507;28;20033;-73
2021/01/14 05:01:19;;;;;;;10.93;6.78;;;0.10;98.00;;;;;;5082335;28;20472;-74
2021/01/14 05:03:49;;;;;;;5.47;3.70;;;0.10;98.00;;;;;;5086851;28;20016;-74
2021/01/14 05:06:23;;;;;;;6.45;3.97;;;0.10;98.00;;;;;;5078082;28;20428;-72
2021/01/14 05:08:51;;;;;;;3.85;2.47;;;0.10;98.00;;;;;;5074660;28;20432;-74
2021/01/14 05:11:24;;;;;;;4.90;3.42;;;0.10;98.00;;;;;;5088172;28;20067;-73
2021/01/14 05:13:51;;;;;;;7.25;3.50;;;0.20;98.00;;;;;;5082922;28;20137;-73
2021/01/14 05:16:17;;;;;;;6.03;3.90;;;0.10;98.00;;;;;;5078802;28;20036;-73
2021/01/14 05:18:43;;;;;;;20.92;4.50;;;0.10;98.00;;;;;;5086143;28;20058;-72
2021/01/14 05:21:08;;;;;;;7.30;5.10;;;0.10;98.00;;;;;;5083201;28;20409;-72
2021/01/14 05:23:34;;;;;;;6.00;4.07;;;0.10;98.00;;;;;;5080089;28;20017;-74
2021/01/14 05:26:01;;;;;;;7.65;4.18;;;0.10;98.00;;;;;;5081200;28;20093;-74
2021/01/14 05:28:29;;;;;;;6.57;4.35;;;0.10;98.00;;;;;;5083963;28;20030;-74
2021/01/14 05:31:16;;;;;;;7.47;4.50;;;0.10;98.00;;;;;;5078558;28;20024;-74
2021/01/14 05:33:42;;;;;;;5.53;3.65;;;0.10;98.00;;;;;;5083922;28;20036;-74
2021/01/14 05:36:08;;;;;;;6.90;4.32;;;0.10;98.00;;;;;;5076858;28;20025;-74
2021/01/14 05:38:34;;;;;;;5.47;3.70;;;0.10;98.00;;;;;;5087159;28;20854;-74
2021/01/14 05:41:11;;;;;;;5.90;3.58;;;0.10;98.00;;;;;;5094084;28;20107;-74
2021/01/14 05:43:56;;;;;;;7.22;4.90;;;0.10;98.00;;;;;;5081924;28;20024;-74
2021/01/14 05:46:30;;;;;;;22.02;12.65;;;0.10;98.00;;;;;;5077516;28;20021;-73
2021/01/14 05:48:58;;;;;;;19.63;9.85;;;0.10;98.00;;;;;;5083820;28;20025;-74
2021/01/14 05:51:26;;;;;;;14.32;9.05;;;0.10;98.00;;;;;;5078119;28;20028;-73
2021/01/14 05:53:55;;;;;;;14.75;8.75;;;0.10;98.00;;;;;;5075465;28;20065;-73
2021/01/14 05:56:45;;;;;;;12.20;8.15;;;0.10;98.00;;;;;;5076752;28;20102;-72
2021/01/14 05:59:13;;;;;;;14.95;9.27;;;0.20;98.00;;;;;;5089043;28;20103;-74
2021/01/14 06:01:53;;;;;;;12.57;7.13;;;0.20;98.00;;;;;;5086977;28;20024;-73
2021/01/14 06:04:24;;;;;;;5.13;3.58;;;0.10;98.00;;;;;;5083969;28;20123;-73
2021/01/14 06:06:51;;;;;;;4.85;3.47;;;0.10;98.00;;;;;;5082127;28;20043;-73
2021/01/14 06:09:21;;;;;;;5.40;3.60;;;0.10;98.00;;;;;;5078049;28;20418;-73
2021/01/14 06:11:50;;;;;;;9.77;6.15;;;0.20;98.00;;;;;;5087199;28;20117;-72
2021/01/14 06:14:36;;;;;;;30.67;12.15;;;0.20;98.00;;;;;;5082465;28;20017;-72
2021/01/14 06:17:04;;;;;;;19.90;10.25;;;0.10;98.00;;;;;;5078117;28;20040;-73
2021/01/14 06:19:31;;;;;;;22.35;14.73;;;0.10;98.00;;;;;;5075296;28;20436;-72
2021/01/14 06:21:58;;;;;;;11.73;7.50;;;0.10;98.00;;;;;;5082204;28;20032;-73
2021/01/14 06:24:26;;;;;;;16.95;9.10;;;0.20;98.00;;;;;;5089479;28;20150;-74
2021/01/14 06:27:08;;;;;;;12.52;7.15;;;0.10;98.00;;;;;;5081226;28;20032;-73
2021/01/14 06:29:43;;;;;;;10.13;6.78;;;0.10;98.00;;;;;;5088275;28;20020;-73
2021/01/14 06:32:17;;;;;;;7.47;4.50;;;0.10;98.00;;;;;;5082331;28;20143;-73
2021/01/14 06:34:45;;;;;;;9.93;6.95;;;0.10;98.00;;;;;;5090791;28;20118;-73
2021/01/14 06:37:13;;;;;;;5.90;4.05;;;0.00;98.00;;;;;;5095564;28;20028;-73
2021/01/14 06:39:45;;;;;;;14.70;4.63;;;0.10;98.00;;;;;;5094749;28;20075;-73
2021/01/14 06:42:32;;;;;;;9.20;5.00;;;0.10;98.00;;;;;;5094675;28;20032;-73
2021/01/14 06:45:11;;;;;;;12.93;8.27;;;0.00;98.00;;;;;;5083277;28;20034;-74
2021/01/14 06:47:47;;;;;;;19.23;11.43;;;0.00;98.00;;;;;;5081855;28;20022;-73
2021/01/14 06:50:18;;;;;;;16.48;9.98;;;0.00;98.00;;;;;;5087695;28;20028;-72
2021/01/14 06:52:59;;;;;;;14.13;7.68;;;0.00;98.00;;;;;;5089443;28;20052;-74
2021/01/14 06:55:26;;;;;;;11.70;5.57;;;0.00;98.00;;;;;;5085098;28;20429;-73
2021/01/14 06:58:06;;;;;;;4.13;2.78;;;0.00;98.00;;;;;;5093659;28;20055;-74
2021/01/14 07:00:39;;;;;;;7.90;3.10;;;0.00;98.00;;;;;;5085380;28;20492;-74
2021/01/14 07:03:16;;;;;;;5.15;3.05;;;-0.10;98.00;;;;;;5086042;28;20090;-74
2021/01/14 07:05:54;;;;;;;5.35;3.60;;;-0.10;98.00;;;;;;5083160;28;20024;-73
2021/01/14 07:08:53;;;;;;;4.32;2.50;;;-0.10;98.00;;;;;;5087802;28;20032;-74
2021/01/14 07:11:21;;;;;;;3.90;2.50;;;-0.20;98.00;;;;;;5086157;28;20028;-73
2021/01/14 07:13:48;;;;;;;6.25;3.88;;;-0.20;98.00;;;;;;5087316;28;20420;-74
2021/01/14 07:16:25;;;;;;;4.78;2.45;;;-0.30;98.00;;;;;;5086294;28;20347;-73
2021/01/14 07:18:51;;;;;;;4.05;2.70;;;-0.50;98.00;;;;;;5088281;28;20151;-74
2021/01/14 07:21:30;;;;;;;4.70;2.88;;;-0.60;98.00;;;;;;5079249;28;20028;-74
2021/01/14 07:24:18;;;;;;;5.82;3.33;;;-0.70;98.00;;;;;;5080137;28;20425;-74
2021/01/14 07:26:50;;;;;;;5.95;4.00;;;-0.90;98.00;;;;;;5088228;28;20025;-74
2021/01/14 07:29:17;;;;;;;5.18;3.10;;;-0.90;98.00;;;;;;5084193;28;20310;-73
2021/01/14 07:31:50;;;;;;;5.20;3.78;;;-1.00;98.00;;;;;;5082195;28;20055;-75
2021/01/14 07:34:42;;;;;;;5.18;3.10;;;-0.90;98.00;;;;;;5085245;28;20233;-75
2021/01/14 07:37:18;;;;;;;6.57;4.20;;;-0.90;98.00;;;;;;5077637;28;20124;-73
2021/01/14 07:39:49;;;;;;;6.78;4.38;;;-0.90;98.00;;;;;;5100270;28;20340;-75
2021/01/14 07:42:25;;;;;;;9.05;5.97;;;-0.90;98.00;;;;;;5084199;28;20030;-75
2021/01/14 07:45:03;;;;;;;6.50;4.30;;;-0.90;98.00;;;;;;5085441;28;20059;-74
2021/01/14 07:47:30;;;;;;;9.07;7.30;;;-0.90;98.00;;;;;;5084389;28;20047;-74
2021/01/14 07:50:17;;;;;;;27.65;12.40;;;-0.90;98.00;;;;;;5100732;28;20166;-75
2021/01/14 07:52:45;;;;;;;33.05;14.95;;;-0.80;98.00;;;;;;5078821;28;20046;-74
2021/01/14 07:55:22;;;;;;;9.50;4.63;;;-0.90;98.00;;;;;;5080719;28;20129;-74
2021/01/14 07:58:19;;;;;;;5.82;3.25;;;-0.90;98.00;;;;;;5078555;28;20025;-73
2021/01/14 08:01:00;;;;;;;7.15;3.90;;;-1.10;98.00;;;;;;5088350;28;20377;-73
2021/01/14 08:03:36;;;;;;;4.38;3.10;;;-1.10;98.00;;;;;;5084515;28;20436;-74
2021/01/14 08:06:29;;;;;;;5.53;4.07;;;-1.10;98.00;;;;;;5080038;28;20028;-74
2021/01/14 08:09:06;;;;;;;5.65;3.05;;;-1.10;98.00;;;;;;5080923;28;20086;-73
2021/01/14 08:11:36;;;;;;;4.75;3.22;;;-1.20;98.00;;;;;;5077214;28;20024;-73
2021/01/14 08:14:02;;;;;;;4.65;2.72;;;-1.10;98.00;;;;;;5091497;28;20066;-73
2021/01/14 08:16:35;;;;;;;6.85;2.85;;;-1.00;98.00;;;;;;5077025;28;20048;-75
2021/01/14 08:19:20;;;;;;;6.23;3.93;;;-1.00;98.00;;;;;;5087442;28;20047;-75
2021/01/14 08:21:58;;;;;;;3.25;2.25;;;-1.10;98.00;;;;;;5089580;28;20282;-74
2021/01/14 08:24:56;;;;;;;4.18;2.78;;;-1.10;98.00;;;;;;5090274;28;20024;-74
2021/01/14 08:27:22;;;;;;;8.02;4.95;;;-1.10;98.00;;;;;;5083992;28;20420;-74
2021/01/14 08:30:13;;;;;;;6.85;4.57;;;-1.00;98.00;;;;;;5090572;28;20043;-75
2021/01/14 08:32:40;;;;;;;5.75;3.35;;;-1.00;98.00;;;;;;5081385;28;20035;-74
2021/01/14 08:35:16;;;;;;;3.97;2.85;;;-1.00;98.00;;;;;;5081805;28;20036;-74
2021/01/14 08:37:55;;;;;;;6.95;4.22;;;-1.10;98.00;;;;;;5080408;28;20106;-73
2021/01/14 08:40:24;;;;;;;9.77;5.43;;;-1.10;98.00;;;;;;5075668;28;20451;-74
2021/01/14 08:43:04;;;;;;;8.27;3.67;;;-1.00;98.00;;;;;;5079344;28;20109;-74
2021/01/14 08:45:50;;;;;;;6.47;3.75;;;-1.10;98.00;;;;;;5080869;28;20166;-74
2021/01/14 08:48:22;;;;;;;7.50;4.53;;;-1.00;98.00;;;;;;5088983;28;20020;-74
2021/01/14 08:51:03;;;;;;;5.22;2.40;;;-1.10;98.00;;;;;;5087039;28;20020;-74
2021/01/14 08:53:37;;;;;;;5.63;3.22;;;-1.10;97.90;;;;;;5082375;28;20436;-74
2021/01/14 08:56:05;;;;;;;4.35;2.50;;;-1.20;98.00;;;;;;5090568;28;20104;-74
2021/01/14 08:58:45;;;;;;;5.55;2.85;;;-1.30;98.00;;;;;;5082198;28;20024;-74
2021/01/14 09:01:20;;;;;;;8.90;5.18;;;-1.30;98.00;;;;;;5087835;28;20059;-73
2021/01/14 09:03:48;;;;;;;6.72;3.75;;;-1.20;98.00;;;;;;5096523;28;20032;-74
2021/01/14 09:06:29;;;;;;;5.63;3.50;;;-1.10;98.00;;;;;;5091890;28;20020;-73
2021/01/14 09:08:57;;;;;;;2.83;1.80;;;-1.10;98.00;;;;;;5074405;28;20103;-73
2021/01/14 09:11:26;;;;;;;3.47;2.15;;;-1.20;98.00;;;;;;5076179;28;20436;-73
2021/01/14 09:14:04;;;;;;;3.65;2.13;;;-1.30;98.00;;;;;;5074775;28;20027;-73
2021/01/14 09:16:32;;;;;;;3.15;1.98;;;-1.30;98.00;;;;;;5079111;28;20024;-73
2021/01/14 09:18:58;;;;;;;2.20;1.52;;;-1.20;98.00;;;;;;5079864;28;20101;-75
2021/01/14 09:21:24;;;;;;;4.45;2.30;;;-1.30;98.00;;;;;;5076384;28;20032;-73
2021/01/14 09:23:50;;;;;;;2.60;1.75;;;-1.50;98.00;;;;;;5089053;28;20024;-73
2021/01/14 09:26:20;;;;;;;2.97;1.92;;;-1.50;98.00;;;;;;5081839;28;20021;-73
2021/01/14 09:28:52;;;;;;;3.45;2.08;;;-1.60;98.00;;;;;;5079564;28;20021;-74
2021/01/14 09:31:19;;;;;;;2.83;1.88;;;-1.70;98.00;;;;;;5088165;28;20082;-73
2021/01/14 09:33:48;;;;;;;2.58;1.60;;;-1.60;98.00;;;;;;5077614;28;20029;-74
2021/01/14 09:36:19;;;;;;;4.18;2.10;;;-1.60;98.00;;;;;;5080438;28;20417;-74
2021/01/14 09:38:52;;;;;;;4.20;2.15;;;-1.50;98.00;;;;;;5080805;28;20070;-73
2021/01/14 09:41:29;;;;;;;2.42;1.63;;;-1.40;98.00;;;;;;5078277;28;20036;-73
2021/01/14 09:44:09;;;;;;;2.67;1.73;;;-1.50;98.00;;;;;;5087889;28;20111;-73
2021/01/14 09:46:38;;;;;;;2.70;1.70;;;-1.40;98.00;;;;;;5094383;28;20107;-73
2021/01/14 09:49:07;;;;;;;2.72;1.88;;;-1.30;98.00;;;;;;5085441;28;20025;-73
2021/01/14 09:51:34;;;;;;;2.17;1.52;;;-1.40;98.00;;;;;;5083386;28;20026;-73
2021/01/14 09:54:00;;;;;;;2.83;1.65;;;-1.40;98.00;;;;;;5088034;28;20399;-73
2021/01/14 09:56:40;;;;;;;2.38;1.50;;;-1.30;98.00;;;;;;5087077;28;20039;-73
2021/01/14 09:59:26;;;;;;;4.50;2.88;;;-1.10;98.00;;;;;;5078960;28;20020;-74
2021/01/14 10:02:25;;;;;;;3.90;2.28;;;-0.90;98.00;;;;;;5081782;28;20115;-73
2021/01/14 10:04:59;;;;;;;5.88;3.58;;;-0.90;98.00;;;;;;5083604;28;20115;-73
2021/01/14 10:07:26;;;;;;;4.88;3.13;;;-1.00;98.00;;;;;;5080660;28;20032;-73
2021/01/14 10:09:53;;;;;;;4.60;2.97;;;-1.00;98.00;;;;;;5083436;28;20040;-74
2021/01/14 10:12:19;;;;;;;3.60;2.40;;;-0.90;98.00;;;;;;5092334;28;20028;-73
2021/01/14 10:14:45;;;;;;;3.00;2.00;;;-0.80;98.00;;;;;;5086250;28;20059;-74
2021/01/14 10:17:16;;;;;;;14.75;7.75;;;-0.70;98.00;;;;;;5085600;28;20342;-75
2021/01/14 10:19:47;;;;;;;6.43;4.15;;;-0.60;98.00;;;;;;5084780;28;20405;-74
2021/01/14 10:22:14;;;;;;;7.53;4.78;;;-0.60;98.00;;;;;;5079862;28;20031;-73
2021/01/14 10:24:39;;;;;;;6.57;5.03;;;-0.60;98.00;;;;;;5090767;28;20304;-73
2021/01/14 10:27:12;;;;;;;6.68;4.03;;;-0.50;98.00;;;;;;5090510;28;20055;-73
2021/01/14 10:29:38;;;;;;;7.10;5.43;;;-0.40;98.00;;;;;;5087928;28;20028;-73
2021/01/14 10:32:08;;;;;;;3.70;2.53;;;-0.30;98.00;;;;;;5081158;28;20077;-73
2021/01/14 10:34:42;;;;;;;3.95;2.25;;;-0.30;98.00;;;;;;5086234;28;20021;-73
2021/01/14 10:37:27;;;;;;;2.55;1.80;;;-0.30;98.00;;;;;;5082904;28;20017;-74
2021/01/14 10:39:57;;;;;;;4.15;2.33;;;-0.30;98.00;;;;;;5084544;28;20115;-73
2021/01/14 10:42:30;;;;;;;4.68;2.72;;;-0.20;98.00;;;;;;5085850;28;20035;-73
2021/01/14 10:45:06;;;;;;;6.25;3.55;;;-0.10;98.00;;;;;;5085838;28;20086;-72
2021/01/14 10:47:33;;;;;;;4.40;2.95;;;0.00;98.00;;;;;;5075458;28;20028;-72
2021/01/14 10:50:00;;;;;;;3.40;1.77;;;0.00;98.00;;;;;;5084045;28;20039;-72
2021/01/14 10:52:25;;;;;;;2.38;1.55;;;0.20;98.00;;;;;;5077563;28;20111;-72
2021/01/14 10:55:15;;;;;;;2.13;1.40;;;0.20;98.00;;;;;;5094996;28;20103;-74
2021/01/14 10:57:51;;;;;;;2.42;1.40;;;0.00;98.00;;;;;;5076256;28;20029;-73
2021/01/14 11:00:19;;;;;;;1.65;1.10;;;-0.10;98.00;;;;;;5075036;28;20027;-73
2021/01/14 11:02:45;;;;;;;3.03;1.98;;;-0.20;98.00;;;;;;5090152;28;20028;-73
2021/01/14 11:05:14;;;;;;;5.15;1.80;;;-0.20;98.00;;;;;;5085854;28;20298;-73
2021/01/14 11:07:41;;;;;;;4.03;2.45;;;-0.20;98.00;;;;;;5084233;28;20371;-73
2021/01/14 11:10:10;;;;;;;3.17;1.52;;;-0.10;98.00;;;;;;5095694;28;20040;-73
2021/01/14 11:13:06;;;;;;;2.97;1.50;;;-0.20;98.00;;;;;;5092296;28;20020;-74
2021/01/14 11:15:32;;;;;;;9.27;4.97;;;0.00;98.00;;;;;;5076744;28;20418;-72
2021/01/14 11:18:01;;;;;;;15.82;8.75;;;0.10;98.00;;;;;;5092120;28;20120;-73
2021/01/14 11:20:28;;;;;;;5.97;2.45;;;0.00;98.00;;;;;;5091104;28;20486;-74
2021/01/14 11:22:54;;;;;;;1.60;1.20;;;0.00;98.00;;;;;;5081898;28;20060;-72
2021/01/14 11:25:20;;;;;;;2.83;1.83;;;-0.10;98.00;;;;;;5086213;28;20197;-73
2021/01/14 11:27:46;;;;;;;3.05;1.85;;;-0.30;98.00;;;;;;5094086;28;20437;-73
2021/01/14 11:30:13;;;;;;;2.85;1.65;;;-0.20;98.00;;;;;;5095109;28;20077;-74
2021/01/14 11:32:38;;;;;;;33.72;15.25;;;-0.10;98.00;;;;;;5085582;28;20028;-73
2021/01/14 11:35:04;;;;;;;3.28;2.17;;;0.00;98.00;;;;;;5089944;28;20031;-74
2021/01/14 11:37:30;;;;;;;4.03;2.30;;;0.00;98.00;;;;;;5086294;28;20032;-73
2021/01/14 11:39:56;;;;;;;6.97;2.33;;;0.20;98.00;;;;;;5081699;28;20028;-73
2021/01/14 11:42:21;;;;;;;3.35;1.45;;;0.30;98.00;;;;;;5077202;28;20321;-74
2021/01/14 11:44:48;;;;;;;1.77;1.27;;;0.20;98.00;;;;;;5087267;28;20038;-74
2021/01/14 11:47:16;;;;;;;1.50;1.20;;;0.00;98.00;;;;;;5085486;28;20324;-74
2021/01/14 11:49:44;;;;;;;2.42;1.50;;;0.00;98.00;;;;;;5077563;28;20111;-74
2021/01/14 11:52:10;;;;;;;2.08;1.33;;;0.00;98.00;;;;;;5076035;28;20028;-72
2021/01/14 11:54:36;;;;;;;4.03;2.28;;;0.00;98.00;;;;;;5077555;28;20421;-74
2021/01/14 11:57:02;;;;;;;7.45;3.97;;;0.00;98.00;;;;;;5082145;28;20154;-73
2021/01/14 11:59:27;;;;;;;5.03;3.47;;;0.20;98.00;;;;;;5076439;28;20032;-73
2021/01/14 12:01:56;;;;;;;4.00;2.55;;;0.40;98.00;;;;;;5083753;28;20374;-72
2021/01/14 12:04:22;;;;;;;4.65;2.67;;;0.50;97.90;;;;;;5092047;28;20020;-73
2021/01/14 12:06:52;;;;;;;3.65;2.05;;;0.40;98.00;;;;;;5083326;28;20055;-72
2021/01/14 12:09:22;;;;;;;5.57;3.35;;;0.30;98.00;;;;;;5089014;28;20028;-72
2021/01/14 12:11:54;;;;;;;4.80;2.83;;;0.40;98.00;;;;;;5087915;28;20439;-72
2021/01/14 12:14:21;;;;;;;4.72;3.00;;;0.40;98.00;;;;;;5077187;28;20044;-72
2021/01/14 12:16:47;;;;;;;3.40;1.75;;;0.40;98.00;;;;;;5092238;28;20030;-72
2021/01/14 12:19:12;;;;;;;4.38;2.00;;;0.10;98.00;;;;;;5083073;28;20024;-71
2021/01/14 12:21:38;;;;;;;3.05;1.60;;;0.00;98.00;;;;;;5088441;28;20043;-73
2021/01/14 12:24:04;;;;;;;2.15;1.40;;;0.10;98.00;;;;;;5088975;28;20034;-73
2021/01/14 12:26:30;;;;;;;4.45;2.75;;;0.20;98.00;;;;;;5096189;28;20440;-73
2021/01/14 12:28:55;;;;;;;3.58;2.20;;;0.20;98.00;;;;;;5086459;28;20033;-72
2021/01/14 12:31:21;;;;;;;3.63;1.80;;;0.10;98.00;;;;;;5085965;28;20028;-73
2021/01/14 12:33:47;;;;;;;2.88;1.75;;;0.00;98.00;;;;;;5087067;28;20028;-72
2021/01/14 12:36:12;;;;;;;3.95;2.00;;;-0.10;98.00;;;;;;5077715;28;20028;-72
2021/01/14 12:38:38;;;;;;;3.13;1.70;;;0.00;98.00;;;;;;5081331;28;20025;-71
2021/01/14 12:41:03;;;;;;;2.53;1.60;;;0.00;98.00;;;;;;5085403;28;20043;-72
2021/01/14 12:43:29;;;;;;;2.00;1.40;;;0.00;98.00;;;;;;5076364;28;20036;-71
2021/01/14 12:45:57;;;;;;;2.42;1.70;;;0.20;98.00;;;;;;5086554;28;20051;-72
2021/01/14 12:48:23;;;;;;;2.63;1.60;;;0.20;98.00;;;;;;5088580;28;20024;-72
2021/01/14 12:50:49;;;;;;;3.42;2.15;;;0.30;98.00;;;;;;5094843;28;20047;-72
2021/01/14 12:53:15;;;;;;;11.63;5.90;;;0.30;97.60;;;;;;5088209;28;20024;-72
2021/01/14 12:55:41;;;;;;;7.25;4.95;;;0.10;97.80;;;;;;5076305;28;20373;-71
2021/01/14 12:58:06;;;;;;;4.85;2.60;;;0.00;98.00;;;;;;5081129;28;20115;-71
2021/01/14 13:00:32;;;;;;;3.60;2.20;;;0.00;98.00;;;;;;5079755;28;20365;-71
2021/01/14 13:02:57;;;;;;;3.40;1.70;;;0.00;98.00;;;;;;5076245;28;20024;-72
2021/01/14 13:05:23;;;;;;;2.53;1.50;;;-0.10;98.00;;;;;;5075964;28;20073;-72
2021/01/14 13:07:49;;;;;;;2.97;1.60;;;-0.20;98.00;;;;;;5076844;28;20033;-72
2021/01/14 13:10:15;;;;;;;2.45;1.52;;;-0.10;98.00;;;;;;5083296;28;20507;-73